createdAt,value
2022-07-26T00:01:31.598Z,48.40
2022-07-26T00:04:34.076Z,48.40
2022-07-26T00:07:36.839Z,48.80
2022-07-26T00:10:45.256Z,48.10
2022-07-26T00:13:47.457Z,48.10
2022-07-26T00:16:49.412Z,47.90
2022-07-26T00:19:51.223Z,47.90
2022-07-26T00:22:53.041Z,47.80
2022-07-26T00:25:54.810Z,47.70
2022-07-26T00:28:56.748Z,47.60
2022-07-26T00:31:58.558Z,47.60
2022-07-26T00:35:00.391Z,47.50
2022-07-26T00:38:02.168Z,47.30
2022-07-26T00:41:04.889Z,47.20
2022-07-26T00:44:07.981Z,47.10
2022-07-26T00:47:10.008Z,47.00
2022-07-26T00:50:15.324Z,46.90
2022-07-26T00:53:23.147Z,46.80
2022-07-26T00:56:26.494Z,46.60
2022-07-26T00:59:28.821Z,46.50
2022-07-26T01:02:30.668Z,46.40
2022-07-26T01:05:33.339Z,46.20
2022-07-26T01:08:35.558Z,46.10
2022-07-26T01:11:37.372Z,46.10
2022-07-26T01:14:44.286Z,46.00
2022-07-26T01:17:47.291Z,45.80
2022-07-26T01:20:50.338Z,45.80
2022-07-26T01:23:52.120Z,45.60
2022-07-26T01:26:55.622Z,45.60
2022-07-26T01:29:57.448Z,45.40
2022-07-26T01:32:59.317Z,45.30
2022-07-26T01:36:02.058Z,45.10
2022-07-26T01:39:04.491Z,45.20
2022-07-26T01:42:06.367Z,45.10
2022-07-26T01:45:10.322Z,45.00
2022-07-26T01:48:12.426Z,45.00
2022-07-26T01:51:14.236Z,45.00
2022-07-26T01:54:16.014Z,44.90
2022-07-26T01:57:24.583Z,44.70
2022-07-26T02:00:26.398Z,45.20
2022-07-26T02:03:28.166Z,44.70
2022-07-26T02:06:29.965Z,44.60
2022-07-26T02:09:32.016Z,44.60
2022-07-26T02:12:40.518Z,44.70
2022-07-26T02:15:42.525Z,44.60
2022-07-26T02:18:44.738Z,44.50
2022-07-26T02:21:46.596Z,44.50
2022-07-26T02:24:49.304Z,44.50
2022-07-26T02:27:51.346Z,44.50
2022-07-26T02:30:53.328Z,44.50
2022-07-26T02:33:55.131Z,44.40
2022-07-26T02:36:57.019Z,44.40
2022-07-26T02:39:58.805Z,44.40
2022-07-26T02:43:00.750Z,44.40
2022-07-26T02:46:02.766Z,44.30
2022-07-26T02:49:04.984Z,44.30
2022-07-26T02:52:06.894Z,44.20
2022-07-26T02:55:09.151Z,44.20
2022-07-26T02:58:11.914Z,44.20
2022-07-26T03:01:13.720Z,44.20
2022-07-26T03:04:15.768Z,44.20
2022-07-26T03:07:17.701Z,44.20
2022-07-26T03:10:19.522Z,44.10
2022-07-26T03:13:21.501Z,44.10
2022-07-26T03:16:27.481Z,44.10
2022-07-26T03:19:31.299Z,44.00
2022-07-26T03:22:33.065Z,44.00
2022-07-26T03:25:37.622Z,44.00
2022-07-26T03:28:42.324Z,44.00
2022-07-26T03:31:44.080Z,44.00
2022-07-26T03:34:45.845Z,43.80
2022-07-26T03:37:47.757Z,43.80
2022-07-26T03:40:49.526Z,44.20
2022-07-26T03:43:51.279Z,43.60
2022-07-26T03:46:53.102Z,43.60
2022-07-26T03:49:54.856Z,43.60
2022-07-26T03:52:56.682Z,43.50
2022-07-26T03:56:16.861Z,43.50
2022-07-26T03:59:19.058Z,43.50
2022-07-26T04:02:20.837Z,43.50
2022-07-26T04:05:23.499Z,43.40
2022-07-26T04:08:26.214Z,43.40
2022-07-26T04:11:28.308Z,43.40
2022-07-26T04:14:30.565Z,43.40
2022-07-26T04:17:41.537Z,43.30
2022-07-26T04:20:44.104Z,43.30
2022-07-26T04:23:50.839Z,43.20
2022-07-26T04:26:53.211Z,43.20
2022-07-26T04:29:55.016Z,43.30
2022-07-26T04:32:56.820Z,43.20
2022-07-26T04:35:59.301Z,43.30
2022-07-26T04:39:01.137Z,43.90
2022-07-26T04:42:03.002Z,43.30
2022-07-26T04:45:08.256Z,43.20
2022-07-26T04:48:10.546Z,43.30
2022-07-26T04:51:12.315Z,43.20
2022-07-26T04:54:15.636Z,43.30
2022-07-26T04:57:17.494Z,43.40
2022-07-26T05:00:24.239Z,43.30
2022-07-26T05:03:26.347Z,43.30
2022-07-26T05:06:28.135Z,43.30
2022-07-26T05:09:30.303Z,43.30
2022-07-26T05:12:32.024Z,43.30
2022-07-26T05:15:36.582Z,43.90
2022-07-26T05:18:45.745Z,43.40
2022-07-26T05:21:51.632Z,43.40
2022-07-26T05:24:53.379Z,43.50
2022-07-26T05:27:55.215Z,43.40
2022-07-26T05:30:57.179Z,43.40
2022-07-26T05:33:59.045Z,43.40
2022-07-26T05:37:00.860Z,43.50
2022-07-26T05:40:04.264Z,44.60
2022-07-26T05:43:06.075Z,45.60
2022-07-26T05:46:09.729Z,45.30
2022-07-26T05:49:11.912Z,45.10
2022-07-26T05:52:13.806Z,45.20
2022-07-26T05:55:15.618Z,44.80
2022-07-26T05:58:17.523Z,44.40
2022-07-26T06:01:19.440Z,44.10
2022-07-26T06:04:21.583Z,44.00
2022-07-26T06:07:26.918Z,43.90
2022-07-26T06:10:28.722Z,43.90
2022-07-26T06:13:30.558Z,43.90
2022-07-26T06:16:32.461Z,43.90
2022-07-26T06:19:34.726Z,44.00
2022-07-26T06:22:36.538Z,44.00
2022-07-26T06:25:39.027Z,44.00
2022-07-26T06:28:41.421Z,44.00
2022-07-26T06:31:43.332Z,44.10
2022-07-26T06:34:45.160Z,44.20
2022-07-26T06:37:46.968Z,44.20
2022-07-26T06:40:48.791Z,44.40
2022-07-26T06:43:50.773Z,44.30
2022-07-26T06:46:52.667Z,44.30
2022-07-26T06:49:54.459Z,44.30
2022-07-26T06:52:56.272Z,44.30
2022-07-26T06:55:58.712Z,44.40
2022-07-26T06:59:00.520Z,44.40
2022-07-26T07:02:02.615Z,44.40
2022-07-26T07:05:05.090Z,44.50
2022-07-26T07:08:07.343Z,44.50
2022-07-26T07:11:09.277Z,44.50
2022-07-26T07:14:11.256Z,44.70
2022-07-26T07:17:18.470Z,44.70
2022-07-26T07:20:21.846Z,45.40
2022-07-26T07:23:23.643Z,44.90
2022-07-26T07:26:25.543Z,44.90
2022-07-26T07:29:27.575Z,45.00
2022-07-26T07:32:31.260Z,45.10
2022-07-26T07:35:33.095Z,45.10
2022-07-26T07:38:37.373Z,45.20
2022-07-26T07:41:40.791Z,45.20
2022-07-26T07:44:42.592Z,45.30
2022-07-26T07:47:44.468Z,45.30
2022-07-26T07:50:46.645Z,45.30
2022-07-26T07:53:56.324Z,45.40
2022-07-26T07:56:59.292Z,45.40
2022-07-26T08:00:01.492Z,45.50
2022-07-26T08:03:13.890Z,45.60
2022-07-26T08:06:20.442Z,45.60
2022-07-26T08:09:22.293Z,45.60
2022-07-26T08:12:24.582Z,45.60
2022-07-26T08:15:27.511Z,45.70
2022-07-26T08:18:29.392Z,45.70
2022-07-26T08:21:31.853Z,45.70
2022-07-26T08:24:33.684Z,45.70
2022-07-26T08:27:40.869Z,45.80
2022-07-26T08:30:43.360Z,45.80
2022-07-26T08:33:46.567Z,45.80
2022-07-26T08:37:14.204Z,45.90
2022-07-26T08:40:10.717Z,46.50
2022-07-26T08:43:13.465Z,45.90
2022-07-26T08:46:15.450Z,46.00
2022-07-26T08:49:17.329Z,46.60
2022-07-26T08:52:19.259Z,46.00
2022-07-26T08:55:22.724Z,46.10
2022-07-26T08:58:24.647Z,46.10
2022-07-26T09:01:27.416Z,46.10
2022-07-26T09:04:34.557Z,45.90
2022-07-26T09:07:41.954Z,46.40
2022-07-26T09:10:43.917Z,45.70
2022-07-26T09:13:54.428Z,46.20
2022-07-26T09:16:58.789Z,45.40
2022-07-26T09:20:11.734Z,45.50
2022-07-26T09:23:13.612Z,45.50
2022-07-26T09:26:20.519Z,45.60
2022-07-26T09:29:23.322Z,45.80
2022-07-26T09:32:26.497Z,45.90
2022-07-26T09:35:51.112Z,45.90
2022-07-26T09:38:57.158Z,45.90
2022-07-26T09:42:26.708Z,46.00
2022-07-26T09:45:30.699Z,46.00
2022-07-26T09:48:59.523Z,46.00
2022-07-26T09:51:54.784Z,46.00
2022-07-26T09:55:05.760Z,46.00
2022-07-26T09:58:07.806Z,46.10
2022-07-26T10:01:09.554Z,46.10
2022-07-26T10:04:12.445Z,46.10
2022-07-26T10:07:15.550Z,46.20
2022-07-26T10:10:28.574Z,46.20
2022-07-26T10:13:30.483Z,46.20
2022-07-26T10:16:33.150Z,46.20
2022-07-26T10:19:45.839Z,46.20
2022-07-26T10:22:52.490Z,46.80
2022-07-26T10:25:54.334Z,46.30
2022-07-26T10:28:56.188Z,46.30
2022-07-26T10:32:00.733Z,46.30
2022-07-26T10:35:34.332Z,46.40
2022-07-26T10:38:37.842Z,46.40
2022-07-26T10:41:44.093Z,46.40
2022-07-26T10:44:45.955Z,46.40
2022-07-26T10:48:14.603Z,46.50
2022-07-26T10:51:27.653Z,46.50
2022-07-26T10:54:29.488Z,46.50
2022-07-26T10:57:42.685Z,46.50
2022-07-26T11:01:15.053Z,46.50
2022-07-26T11:04:21.304Z,46.60
2022-07-26T11:07:23.162Z,46.60
2022-07-26T11:10:30.565Z,46.60
2022-07-26T11:13:33.804Z,46.60
2022-07-26T11:16:43.711Z,46.60
2022-07-26T11:19:45.935Z,46.60
2022-07-26T11:22:48.351Z,46.70
2022-07-26T11:26:10.034Z,46.70
2022-07-26T11:29:14.275Z,46.70
2022-07-26T11:32:25.061Z,46.70
2022-07-26T11:35:29.888Z,46.70
2022-07-26T11:38:54.946Z,46.70
2022-07-26T11:41:58.890Z,46.50
2022-07-26T11:45:00.817Z,46.50
2022-07-26T11:48:04.378Z,46.50
2022-07-26T11:51:10.526Z,46.60
2022-07-26T11:54:12.677Z,46.70
2022-07-26T11:57:15.362Z,46.70
2022-07-26T12:00:18.155Z,46.70
2022-07-26T12:03:19.999Z,46.70
2022-07-26T12:06:24.639Z,46.40
2022-07-26T12:09:32.329Z,46.60
2022-07-26T12:12:35.294Z,46.70
2022-07-26T12:15:52.167Z,46.50
2022-07-26T12:18:54.110Z,46.40
2022-07-26T12:22:17.843Z,46.50
2022-07-26T12:25:29.919Z,46.30
2022-07-26T12:28:42.151Z,46.20
2022-07-26T12:31:44.274Z,46.20
2022-07-26T12:35:13.264Z,46.30
2022-07-26T12:38:15.053Z,46.40
2022-07-26T12:41:37.619Z,46.30
2022-07-26T12:44:39.470Z,46.40
2022-07-26T12:47:43.028Z,46.40
2022-07-26T12:50:44.882Z,46.10
2022-07-26T12:53:46.720Z,45.90
2022-07-26T12:56:48.728Z,46.00
2022-07-26T12:59:50.838Z,45.90
2022-07-26T13:02:55.642Z,45.90
2022-07-26T13:05:58.378Z,46.10
2022-07-26T13:09:00.806Z,46.10
2022-07-26T13:12:04.835Z,46.10
2022-07-26T13:15:07.236Z,46.40
2022-07-26T13:18:09.182Z,46.50
2022-07-26T13:21:12.008Z,46.40
2022-07-26T13:24:14.106Z,46.40
2022-07-26T13:27:18.589Z,46.50
2022-07-26T13:30:21.978Z,46.50
2022-07-26T13:33:23.791Z,46.70
2022-07-26T13:36:25.973Z,46.40
2022-07-26T13:39:27.833Z,46.40
2022-07-26T13:42:33.733Z,46.20
2022-07-26T13:45:35.645Z,46.20
2022-07-26T13:48:44.076Z,46.30
2022-07-26T13:51:59.955Z,46.40
2022-07-26T13:55:01.813Z,46.70
2022-07-26T13:58:09.510Z,46.70
2022-07-26T14:01:12.026Z,46.70
2022-07-26T14:04:15.687Z,46.70
2022-07-26T14:07:18.051Z,46.70
2022-07-26T14:10:20.522Z,46.30
2022-07-26T14:13:22.322Z,46.40
2022-07-26T14:16:27.625Z,46.30
2022-07-26T14:19:29.513Z,46.40
2022-07-26T14:22:31.537Z,46.60
2022-07-26T14:25:33.504Z,46.60
2022-07-26T14:28:35.317Z,46.50
2022-07-26T14:31:37.345Z,45.90
2022-07-26T14:34:39.276Z,45.70
2022-07-26T14:37:44.323Z,46.20
2022-07-26T14:40:47.587Z,46.10
2022-07-26T14:43:55.456Z,46.70
2022-07-26T14:46:57.644Z,46.30
2022-07-26T14:50:06.251Z,46.50
2022-07-26T14:53:11.404Z,46.40
2022-07-26T14:56:13.187Z,46.30
2022-07-26T14:59:15.160Z,46.50
2022-07-26T15:02:17.033Z,46.60
2022-07-26T15:05:19.195Z,46.60
2022-07-26T15:08:21.025Z,46.50
2022-07-26T15:11:22.961Z,46.50
2022-07-26T15:14:24.775Z,46.60
2022-07-26T15:17:26.565Z,46.50
2022-07-26T15:20:28.431Z,46.30
2022-07-26T15:23:31.043Z,46.20
2022-07-26T15:26:32.929Z,46.50
2022-07-26T15:29:38.427Z,46.40
2022-07-26T15:32:41.632Z,46.50
2022-07-26T15:35:43.787Z,46.70
2022-07-26T15:38:47.759Z,46.40
2022-07-26T15:41:49.725Z,46.20
2022-07-26T15:44:51.799Z,46.80
2022-07-26T15:47:57.426Z,46.50
2022-07-26T15:51:03.069Z,46.30
2022-07-26T15:54:06.649Z,46.10
2022-07-26T15:57:08.877Z,47.30
2022-07-26T16:00:12.143Z,46.60
2022-07-26T16:03:14.664Z,46.70
2022-07-26T16:06:16.494Z,46.80
2022-07-26T16:09:19.609Z,46.80
2022-07-26T16:12:21.759Z,46.90
2022-07-26T16:15:23.623Z,47.00
2022-07-26T16:18:25.456Z,46.80
2022-07-26T16:21:27.253Z,46.50
2022-07-26T16:24:29.087Z,47.40
2022-07-26T16:27:30.876Z,46.30
2022-07-26T16:30:32.764Z,46.30
2022-07-26T16:33:34.646Z,46.90
2022-07-26T16:36:36.772Z,47.20
2022-07-26T16:39:38.560Z,46.80
2022-07-26T16:42:40.357Z,47.00
2022-07-26T16:45:42.130Z,46.70
2022-07-26T16:48:44.330Z,47.20
2022-07-26T16:51:46.272Z,47.00
2022-07-26T16:54:48.152Z,46.90
2022-07-26T16:57:49.982Z,46.90
2022-07-26T17:00:52.175Z,46.70
2022-07-26T17:03:54.030Z,47.20
2022-07-26T17:07:22.265Z,47.30
2022-07-26T17:10:18.281Z,46.90
2022-07-26T17:13:20.082Z,47.10
2022-07-26T17:16:24.643Z,46.90
2022-07-26T17:19:27.736Z,46.20
2022-07-26T17:22:29.552Z,46.30
2022-07-26T17:25:31.385Z,46.60
2022-07-26T17:28:33.593Z,46.50
2022-07-26T17:31:35.385Z,46.40
2022-07-26T17:34:38.243Z,46.60
2022-07-26T17:37:40.259Z,46.80
2022-07-26T17:40:42.131Z,46.40
2022-07-26T17:43:43.958Z,47.10
2022-07-26T17:46:45.802Z,47.00
2022-07-26T17:49:47.696Z,46.80
2022-07-26T17:52:50.781Z,45.70
2022-07-26T17:55:52.609Z,44.50
2022-07-26T17:58:54.502Z,44.70
2022-07-26T18:01:56.326Z,43.80
2022-07-26T18:04:58.241Z,43.40
2022-07-26T18:08:00.323Z,43.50
2022-07-26T18:11:05.398Z,43.90
2022-07-26T18:14:09.124Z,44.20
2022-07-26T18:17:10.917Z,44.20
2022-07-26T18:20:13.191Z,44.60
2022-07-26T18:23:15.167Z,45.10
2022-07-26T18:26:17.006Z,45.20
2022-07-26T18:29:18.818Z,45.50
2022-07-26T18:32:20.671Z,45.60
2022-07-26T18:35:24.170Z,45.70
2022-07-26T18:38:26.000Z,45.80
2022-07-26T18:41:30.333Z,45.90
2022-07-26T18:44:37.066Z,45.80
2022-07-26T18:47:38.911Z,45.80
2022-07-26T18:50:41.014Z,45.90
2022-07-26T18:53:45.091Z,45.70
2022-07-26T18:56:46.895Z,45.80
2022-07-26T18:59:48.667Z,45.80
2022-07-26T19:02:52.096Z,45.80
2022-07-26T19:05:53.894Z,45.80
2022-07-26T19:08:55.671Z,45.70
2022-07-26T19:11:57.470Z,45.60
2022-07-26T19:14:59.994Z,45.60
2022-07-26T19:18:10.869Z,45.40
2022-07-26T19:21:12.679Z,45.10
2022-07-26T19:24:14.767Z,45.30
2022-07-26T19:27:17.166Z,45.30
2022-07-26T19:30:19.240Z,45.30
2022-07-26T19:33:21.145Z,45.50
2022-07-26T19:36:25.752Z,45.70
2022-07-26T19:39:28.642Z,45.80
2022-07-26T19:42:31.312Z,45.60
2022-07-26T19:45:33.112Z,45.80
2022-07-26T19:48:34.960Z,45.80
2022-07-26T19:51:37.241Z,45.80
2022-07-26T19:54:39.523Z,45.80
2022-07-26T19:57:42.333Z,45.80
2022-07-26T20:00:44.144Z,45.80
2022-07-26T20:03:46.228Z,45.80
2022-07-26T20:06:48.317Z,45.90
2022-07-26T20:09:51.297Z,45.90
2022-07-26T20:12:53.141Z,45.90
2022-07-26T20:15:54.942Z,45.90
2022-07-26T20:18:57.195Z,45.90
2022-07-26T20:21:59.285Z,46.00
2022-07-26T20:25:01.255Z,45.90
2022-07-26T20:28:03.444Z,46.10
2022-07-26T20:31:05.461Z,46.20
2022-07-26T20:34:07.355Z,46.20
2022-07-26T20:37:09.234Z,46.40
2022-07-26T20:40:12.615Z,46.30
2022-07-26T20:43:17.951Z,46.30
2022-07-26T20:46:20.070Z,46.40
2022-07-26T20:49:22.041Z,46.50
2022-07-26T20:52:24.150Z,46.30
2022-07-26T20:55:27.746Z,46.30
2022-07-26T20:58:29.596Z,46.30
2022-07-26T21:01:33.105Z,46.30
2022-07-26T21:04:35.164Z,46.50
2022-07-26T21:07:53.444Z,46.70
2022-07-26T21:10:59.830Z,46.70
2022-07-26T21:14:01.682Z,46.70
2022-07-26T21:17:07.913Z,46.70
2022-07-26T21:20:12.901Z,46.80
2022-07-26T21:23:17.701Z,46.90
2022-07-26T21:26:20.264Z,46.90
2022-07-26T21:29:22.378Z,46.90
2022-07-26T21:32:27.181Z,46.90
2022-07-26T21:35:32.974Z,46.90
2022-07-26T21:38:34.787Z,47.00
2022-07-26T21:41:36.927Z,47.00
2022-07-26T21:44:38.733Z,47.00
2022-07-26T21:47:40.614Z,47.40
2022-07-26T21:50:42.410Z,46.70
2022-07-26T21:53:44.387Z,46.70
2022-07-26T21:56:46.222Z,46.50
2022-07-26T21:59:47.995Z,46.40
2022-07-26T22:02:49.919Z,46.20
2022-07-26T22:05:52.425Z,46.20
2022-07-26T22:08:55.941Z,46.20
2022-07-26T22:11:57.740Z,46.10
2022-07-26T22:14:59.511Z,46.10
2022-07-26T22:18:02.015Z,46.00
2022-07-26T22:21:04.053Z,46.50
2022-07-26T22:24:06.353Z,45.90
2022-07-26T22:27:08.152Z,45.80
2022-07-26T22:30:11.160Z,45.80
2022-07-26T22:33:13.135Z,45.70
2022-07-26T22:36:15.159Z,45.70
2022-07-26T22:39:16.933Z,45.70
2022-07-26T22:42:18.718Z,45.70
2022-07-26T22:45:20.527Z,45.60
2022-07-26T22:48:22.362Z,45.60
2022-07-26T22:51:24.132Z,45.60
2022-07-26T22:54:25.911Z,45.60
2022-07-26T22:57:27.795Z,45.60
2022-07-26T23:00:34.092Z,45.50
2022-07-26T23:03:36.007Z,45.50
2022-07-26T23:06:40.047Z,45.40
2022-07-26T23:09:42.038Z,45.40
2022-07-26T23:12:44.209Z,45.30
2022-07-26T23:15:51.675Z,45.40
2022-07-26T23:18:55.434Z,45.40
2022-07-26T23:21:57.264Z,45.20
2022-07-26T23:24:59.066Z,45.10
2022-07-26T23:28:00.897Z,45.60
2022-07-26T23:31:02.742Z,45.10
2022-07-26T23:34:04.580Z,44.90
2022-07-26T23:37:06.469Z,44.80
2022-07-26T23:40:09.094Z,44.80
2022-07-26T23:43:10.879Z,44.80
2022-07-26T23:46:12.802Z,44.70
2022-07-26T23:49:15.031Z,44.80
2022-07-26T23:52:17.481Z,44.80
2022-07-26T23:55:19.337Z,44.80
2022-07-26T23:58:21.263Z,44.70
